sensor_id;sensor_type;location;lat;lon;timestamp;P1;durP1;ratioP1;P2;durP2;ratioP2
38130;SDS011;23947;51.894;4.622;2023-04-02T00:00:19;16.38;;;8.55;;
38130;SDS011;23947;51.894;4.622;2023-04-02T00:02:54;16.13;;;9.20;;
38130;SDS011;23947;51.894;4.622;2023-04-02T00:07:54;13.05;;;8.27;;
38130;SDS011;23947;51.894;4.622;2023-04-02T00:10:46;16.23;;;8.40;;
38130;SDS011;23947;51.894;4.622;2023-04-02T00:15:42;16.55;;;8.80;;
38130;SDS011;23947;51.894;4.622;2023-04-02T00:20:44;16.67;;;8.57;;
38130;SDS011;23947;51.894;4.622;2023-04-02T00:23:15;17.65;;;9.02;;
38130;SDS011;23947;51.894;4.622;2023-04-02T00:25:41;16.58;;;9.30;;
38130;SDS011;23947;51.894;4.622;2023-04-02T00:28:20;19.33;;;8.95;;
38130;SDS011;23947;51.894;4.622;2023-04-02T00:30:51;15.82;;;8.43;;
38130;SDS011;23947;51.894;4.622;2023-04-02T00:33:20;15.48;;;8.13;;
38130;SDS011;23947;51.894;4.622;2023-04-02T00:35:48;15.90;;;8.40;;
38130;SDS011;23947;51.894;4.622;2023-04-02T00:38:26;14.60;;;8.77;;
38130;SDS011;23947;51.894;4.622;2023-04-02T00:40:56;16.50;;;8.57;;
38130;SDS011;23947;51.894;4.622;2023-04-02T00:43:25;13.82;;;8.13;;
38130;SDS011;23947;51.894;4.622;2023-04-02T00:45:53;15.05;;;8.55;;
38130;SDS011;23947;51.894;4.622;2023-04-02T00:50:55;14.20;;;8.00;;
38130;SDS011;23947;51.894;4.622;2023-04-02T00:53:32;16.85;;;8.70;;
38130;SDS011;23947;51.894;4.622;2023-04-02T00:55:59;17.60;;;9.43;;
38130;SDS011;23947;51.894;4.622;2023-04-02T00:58:27;18.92;;;8.73;;
38130;SDS011;23947;51.894;4.622;2023-04-02T01:00:56;17.17;;;9.93;;
38130;SDS011;23947;51.894;4.622;2023-04-02T01:16:45;20.17;;;9.98;;
38130;SDS011;23947;51.894;4.622;2023-04-02T01:22:47;16.40;;;9.77;;
38130;SDS011;23947;51.894;4.622;2023-04-02T01:28:08;19.97;;;10.00;;
38130;SDS011;23947;51.894;4.622;2023-04-02T01:30:39;18.30;;;9.88;;
38130;SDS011;23947;51.894;4.622;2023-04-02T01:33:08;17.90;;;9.80;;
38130;SDS011;23947;51.894;4.622;2023-04-02T01:35:37;17.77;;;9.43;;
38130;SDS011;23947;51.894;4.622;2023-04-02T01:38:11;19.30;;;10.10;;
38130;SDS011;23947;51.894;4.622;2023-04-02T01:43:15;17.83;;;8.65;;
38130;SDS011;23947;51.894;4.622;2023-04-02T01:45:58;21.20;;;9.02;;
38130;SDS011;23947;51.894;4.622;2023-04-02T01:48:24;17.33;;;8.85;;
38130;SDS011;23947;51.894;4.622;2023-04-02T01:50:54;20.27;;;9.18;;
38130;SDS011;23947;51.894;4.622;2023-04-02T01:53:22;13.63;;;7.97;;
38130;SDS011;23947;51.894;4.622;2023-04-02T01:58:22;17.45;;;8.45;;
38130;SDS011;23947;51.894;4.622;2023-04-02T02:00:55;15.20;;;8.35;;
38130;SDS011;23947;51.894;4.622;2023-04-02T02:03:41;17.60;;;8.65;;
38130;SDS011;23947;51.894;4.622;2023-04-02T02:06:11;16.55;;;8.73;;
38130;SDS011;23947;51.894;4.622;2023-04-02T02:08:50;19.85;;;9.63;;
38130;SDS011;23947;51.894;4.622;2023-04-02T02:11:21;17.80;;;9.00;;
38130;SDS011;23947;51.894;4.622;2023-04-02T02:13:58;16.93;;;8.97;;
38130;SDS011;23947;51.894;4.622;2023-04-02T02:16:26;14.38;;;8.25;;
38130;SDS011;23947;51.894;4.622;2023-04-02T02:18:55;16.17;;;9.10;;
38130;SDS011;23947;51.894;4.622;2023-04-02T02:24:45;18.85;;;7.95;;
38130;SDS011;23947;51.894;4.622;2023-04-02T02:30:35;12.85;;;7.28;;
38130;SDS011;23947;51.894;4.622;2023-04-02T02:32:50;15.63;;;7.78;;
38130;SDS011;23947;51.894;4.622;2023-04-02T02:35:20;18.05;;;8.88;;
38130;SDS011;23947;51.894;4.622;2023-04-02T02:37:57;16.30;;;8.95;;
38130;SDS011;23947;51.894;4.622;2023-04-02T02:40:44;18.17;;;8.77;;
38130;SDS011;23947;51.894;4.622;2023-04-02T02:43:14;15.63;;;8.15;;
38130;SDS011;23947;51.894;4.622;2023-04-02T02:45:41;15.75;;;8.32;;
38130;SDS011;23947;51.894;4.622;2023-04-02T02:48:18;17.58;;;9.18;;
38130;SDS011;23947;51.894;4.622;2023-04-02T02:50:47;13.35;;;8.10;;
38130;SDS011;23947;51.894;4.622;2023-04-02T02:53:23;15.02;;;8.27;;
38130;SDS011;23947;51.894;4.622;2023-04-02T02:55:50;18.52;;;8.73;;
38130;SDS011;23947;51.894;4.622;2023-04-02T02:58:19;15.38;;;8.07;;
38130;SDS011;23947;51.894;4.622;2023-04-02T03:00:51;15.65;;;7.15;;
38130;SDS011;23947;51.894;4.622;2023-04-02T03:03:19;18.02;;;7.93;;
38130;SDS011;23947;51.894;4.622;2023-04-02T03:05:52;14.00;;;7.78;;
38130;SDS011;23947;51.894;4.622;2023-04-02T03:08:43;15.80;;;7.75;;
38130;SDS011;23947;51.894;4.622;2023-04-02T03:11:28;13.52;;;7.70;;
38130;SDS011;23947;51.894;4.622;2023-04-02T03:14:09;15.77;;;7.38;;
38130;SDS011;23947;51.894;4.622;2023-04-02T03:16:48;13.90;;;6.82;;
38130;SDS011;23947;51.894;4.622;2023-04-02T03:19:27;15.35;;;7.32;;
38130;SDS011;23947;51.894;4.622;2023-04-02T03:27:31;12.80;;;7.43;;
38130;SDS011;23947;51.894;4.622;2023-04-02T03:32:28;16.88;;;7.70;;
38130;SDS011;23947;51.894;4.622;2023-04-02T03:35:07;15.45;;;8.48;;
38130;SDS011;23947;51.894;4.622;2023-04-02T03:37:45;16.73;;;8.50;;
38130;SDS011;23947;51.894;4.622;2023-04-02T03:40:20;16.00;;;8.02;;
38130;SDS011;23947;51.894;4.622;2023-04-02T03:42:54;14.48;;;7.75;;
38130;SDS011;23947;51.894;4.622;2023-04-02T03:45:31;15.57;;;8.15;;
38130;SDS011;23947;51.894;4.622;2023-04-02T03:48:23;13.77;;;8.02;;
38130;SDS011;23947;51.894;4.622;2023-04-02T03:53:31;16.52;;;8.00;;
38130;SDS011;23947;51.894;4.622;2023-04-02T03:55:58;11.55;;;6.57;;
38130;SDS011;23947;51.894;4.622;2023-04-02T03:58:27;12.35;;;6.50;;
38130;SDS011;23947;51.894;4.622;2023-04-02T04:01:05;12.77;;;6.43;;
38130;SDS011;23947;51.894;4.622;2023-04-02T04:03:48;11.60;;;6.43;;
38130;SDS011;23947;51.894;4.622;2023-04-02T04:06:20;13.88;;;6.68;;
38130;SDS011;23947;51.894;4.622;2023-04-02T04:09:11;12.70;;;6.93;;
38130;SDS011;23947;51.894;4.622;2023-04-02T04:15:06;14.40;;;7.72;;
38130;SDS011;23947;51.894;4.622;2023-04-02T04:17:45;14.65;;;7.25;;
38130;SDS011;23947;51.894;4.622;2023-04-02T04:23:26;17.83;;;8.17;;
38130;SDS011;23947;51.894;4.622;2023-04-02T04:26:00;11.65;;;6.80;;
38130;SDS011;23947;51.894;4.622;2023-04-02T04:31:47;11.13;;;6.90;;
38130;SDS011;23947;51.894;4.622;2023-04-02T04:34:22;12.45;;;7.47;;
38130;SDS011;23947;51.894;4.622;2023-04-02T04:36:55;13.50;;;7.78;;
38130;SDS011;23947;51.894;4.622;2023-04-02T04:42:29;13.20;;;7.82;;
38130;SDS011;23947;51.894;4.622;2023-04-02T04:47:53;12.05;;;7.10;;
38130;SDS011;23947;51.894;4.622;2023-04-02T04:52:52;16.00;;;7.97;;
38130;SDS011;23947;51.894;4.622;2023-04-02T04:57:47;14.73;;;6.90;;
38130;SDS011;23947;51.894;4.622;2023-04-02T05:00:21;13.85;;;7.78;;
38130;SDS011;23947;51.894;4.622;2023-04-02T05:05:50;11.95;;;7.43;;
38130;SDS011;23947;51.894;4.622;2023-04-02T05:08:20;12.38;;;7.10;;
38130;SDS011;23947;51.894;4.622;2023-04-02T05:10:51;16.75;;;7.80;;
38130;SDS011;23947;51.894;4.622;2023-04-02T05:18:30;19.33;;;8.10;;
38130;SDS011;23947;51.894;4.622;2023-04-02T05:21:21;13.65;;;6.93;;
38130;SDS011;23947;51.894;4.622;2023-04-02T05:23:50;12.93;;;6.78;;
38130;SDS011;23947;51.894;4.622;2023-04-02T05:26:32;12.82;;;6.30;;
38130;SDS011;23947;51.894;4.622;2023-04-02T05:31:43;12.20;;;6.90;;
38130;SDS011;23947;51.894;4.622;2023-04-02T05:34:19;25.98;;;12.93;;
38130;SDS011;23947;51.894;4.622;2023-04-02T05:36:49;13.57;;;7.18;;
38130;SDS011;23947;51.894;4.622;2023-04-02T05:39:17;13.63;;;6.82;;
38130;SDS011;23947;51.894;4.622;2023-04-02T05:42:34;14.88;;;7.47;;
38130;SDS011;23947;51.894;4.622;2023-04-02T05:44:54;12.40;;;7.15;;
38130;SDS011;23947;51.894;4.622;2023-04-02T05:47:41;11.60;;;6.50;;
38130;SDS011;23947;51.894;4.622;2023-04-02T05:52:55;13.48;;;6.88;;
38130;SDS011;23947;51.894;4.622;2023-04-02T05:55:34;12.80;;;6.03;;
38130;SDS011;23947;51.894;4.622;2023-04-02T05:58:15;11.65;;;6.30;;
38130;SDS011;23947;51.894;4.622;2023-04-02T06:01:06;13.77;;;6.50;;
38130;SDS011;23947;51.894;4.622;2023-04-02T06:06:33;10.38;;;5.85;;
38130;SDS011;23947;51.894;4.622;2023-04-02T06:09:06;11.60;;;5.90;;
38130;SDS011;23947;51.894;4.622;2023-04-02T06:11:40;11.48;;;6.03;;
38130;SDS011;23947;51.894;4.622;2023-04-02T06:14:13;12.80;;;6.28;;
38130;SDS011;23947;51.894;4.622;2023-04-02T06:16:40;9.90;;;6.03;;
38130;SDS011;23947;51.894;4.622;2023-04-02T06:19:13;12.50;;;5.67;;
38130;SDS011;23947;51.894;4.622;2023-04-02T06:21:45;13.65;;;6.63;;
38130;SDS011;23947;51.894;4.622;2023-04-02T06:24:14;13.32;;;5.18;;
38130;SDS011;23947;51.894;4.622;2023-04-02T06:26:48;12.35;;;5.53;;
38130;SDS011;23947;51.894;4.622;2023-04-02T06:31:58;11.27;;;5.07;;
38130;SDS011;23947;51.894;4.622;2023-04-02T06:34:26;11.32;;;5.85;;
38130;SDS011;23947;51.894;4.622;2023-04-02T06:36:54;11.18;;;5.55;;
38130;SDS011;23947;51.894;4.622;2023-04-02T06:39:24;9.30;;;4.65;;
38130;SDS011;23947;51.894;4.622;2023-04-02T06:42:10;9.35;;;4.45;;
38130;SDS011;23947;51.894;4.622;2023-04-02T06:47:11;13.20;;;4.90;;
38130;SDS011;23947;51.894;4.622;2023-04-02T06:49:46;9.27;;;3.58;;
38130;SDS011;23947;51.894;4.622;2023-04-02T06:52:35;10.82;;;4.35;;
38130;SDS011;23947;51.894;4.622;2023-04-02T06:55:23;11.32;;;3.67;;
38130;SDS011;23947;51.894;4.622;2023-04-02T06:57:56;12.73;;;3.70;;
38130;SDS011;23947;51.894;4.622;2023-04-02T07:00:29;16.02;;;7.38;;
38130;SDS011;23947;51.894;4.622;2023-04-02T07:03:04;9.50;;;3.30;;
38130;SDS011;23947;51.894;4.622;2023-04-02T07:05:31;11.68;;;3.85;;
38130;SDS011;23947;51.894;4.622;2023-04-02T07:07:57;12.35;;;5.10;;
38130;SDS011;23947;51.894;4.622;2023-04-02T07:10:22;13.02;;;5.05;;
38130;SDS011;23947;51.894;4.622;2023-04-02T07:12:48;10.35;;;3.58;;
38130;SDS011;23947;51.894;4.622;2023-04-02T07:15:17;8.52;;;4.35;;
38130;SDS011;23947;51.894;4.622;2023-04-02T07:17:44;12.05;;;3.47;;
38130;SDS011;23947;51.894;4.622;2023-04-02T07:20:29;8.73;;;2.70;;
38130;SDS011;23947;51.894;4.622;2023-04-02T07:23:01;10.90;;;3.13;;
38130;SDS011;23947;51.894;4.622;2023-04-02T07:25:27;10.00;;;3.33;;
38130;SDS011;23947;51.894;4.622;2023-04-02T07:27:53;14.13;;;4.78;;
38130;SDS011;23947;51.894;4.622;2023-04-02T07:30:19;13.10;;;4.32;;
38130;SDS011;23947;51.894;4.622;2023-04-02T07:32:45;12.02;;;3.35;;
38130;SDS011;23947;51.894;4.622;2023-04-02T07:35:11;8.75;;;3.13;;
38130;SDS011;23947;51.894;4.622;2023-04-02T07:37:37;10.00;;;3.28;;
38130;SDS011;23947;51.894;4.622;2023-04-02T07:40:04;11.90;;;2.60;;
38130;SDS011;23947;51.894;4.622;2023-04-02T07:42:31;8.52;;;2.35;;
38130;SDS011;23947;51.894;4.622;2023-04-02T07:44:56;9.45;;;3.05;;
38130;SDS011;23947;51.894;4.622;2023-04-02T07:47:22;6.72;;;2.63;;
38130;SDS011;23947;51.894;4.622;2023-04-02T07:49:48;8.63;;;2.78;;
38130;SDS011;23947;51.894;4.622;2023-04-02T07:52:13;8.00;;;2.80;;
38130;SDS011;23947;51.894;4.622;2023-04-02T07:54:39;9.57;;;3.00;;
38130;SDS011;23947;51.894;4.622;2023-04-02T07:57:05;8.77;;;3.17;;
38130;SDS011;23947;51.894;4.622;2023-04-02T07:59:30;10.05;;;2.97;;
38130;SDS011;23947;51.894;4.622;2023-04-02T08:01:56;10.98;;;3.05;;
38130;SDS011;23947;51.894;4.622;2023-04-02T08:04:22;8.45;;;3.55;;
38130;SDS011;23947;51.894;4.622;2023-04-02T08:06:48;11.50;;;5.75;;
38130;SDS011;23947;51.894;4.622;2023-04-02T08:09:15;8.48;;;3.95;;
38130;SDS011;23947;51.894;4.622;2023-04-02T08:11:41;9.75;;;3.78;;
38130;SDS011;23947;51.894;4.622;2023-04-02T08:14:07;11.35;;;3.83;;
38130;SDS011;23947;51.894;4.622;2023-04-02T08:16:44;12.63;;;3.92;;
38130;SDS011;23947;51.894;4.622;2023-04-02T08:19:10;9.27;;;3.28;;
38130;SDS011;23947;51.894;4.622;2023-04-02T08:21:35;9.43;;;3.72;;
38130;SDS011;23947;51.894;4.622;2023-04-02T08:24:01;12.55;;;3.63;;
38130;SDS011;23947;51.894;4.622;2023-04-02T08:26:28;10.93;;;3.53;;
38130;SDS011;23947;51.894;4.622;2023-04-02T08:28:53;10.32;;;3.88;;
38130;SDS011;23947;51.894;4.622;2023-04-02T08:31:19;13.55;;;4.72;;
38130;SDS011;23947;51.894;4.622;2023-04-02T08:33:45;8.90;;;3.45;;
38130;SDS011;23947;51.894;4.622;2023-04-02T08:36:20;8.20;;;3.03;;
38130;SDS011;23947;51.894;4.622;2023-04-02T08:38:52;8.30;;;3.00;;
38130;SDS011;23947;51.894;4.622;2023-04-02T08:41:22;7.28;;;2.78;;
38130;SDS011;23947;51.894;4.622;2023-04-02T08:49:15;8.13;;;2.53;;
38130;SDS011;23947;51.894;4.622;2023-04-02T08:51:52;6.95;;;1.63;;
38130;SDS011;23947;51.894;4.622;2023-04-02T08:54:26;6.30;;;2.65;;
38130;SDS011;23947;51.894;4.622;2023-04-02T08:59:30;9.68;;;2.97;;
38130;SDS011;23947;51.894;4.622;2023-04-02T09:04:43;8.43;;;2.60;;
38130;SDS011;23947;51.894;4.622;2023-04-02T09:07:12;7.78;;;2.30;;
38130;SDS011;23947;51.894;4.622;2023-04-02T09:09:40;6.50;;;2.22;;
38130;SDS011;23947;51.894;4.622;2023-04-02T09:12:12;7.15;;;2.28;;
38130;SDS011;23947;51.894;4.622;2023-04-02T09:14:45;9.18;;;2.17;;
38130;SDS011;23947;51.894;4.622;2023-04-02T09:17:23;7.90;;;1.90;;
38130;SDS011;23947;51.894;4.622;2023-04-02T09:19:58;9.20;;;2.08;;
38130;SDS011;23947;51.894;4.622;2023-04-02T09:22:34;6.85;;;1.77;;
38130;SDS011;23947;51.894;4.622;2023-04-02T09:25:00;9.23;;;2.60;;
38130;SDS011;23947;51.894;4.622;2023-04-02T09:29:59;10.43;;;2.60;;
38130;SDS011;23947;51.894;4.622;2023-04-02T09:35:19;34.05;;;11.95;;
38130;SDS011;23947;51.894;4.622;2023-04-02T09:37:47;6.53;;;2.58;;
38130;SDS011;23947;51.894;4.622;2023-04-02T09:41:03;6.47;;;2.22;;
38130;SDS011;23947;51.894;4.622;2023-04-02T09:43:31;5.15;;;2.30;;
38130;SDS011;23947;51.894;4.622;2023-04-02T09:48:27;6.85;;;1.90;;
38130;SDS011;23947;51.894;4.622;2023-04-02T09:56:17;8.07;;;1.98;;
38130;SDS011;23947;51.894;4.622;2023-04-02T09:58:44;11.32;;;4.63;;
38130;SDS011;23947;51.894;4.622;2023-04-02T10:01:26;10.98;;;3.15;;
38130;SDS011;23947;51.894;4.622;2023-04-02T10:03:56;9.05;;;2.25;;
38130;SDS011;23947;51.894;4.622;2023-04-02T10:06:23;9.93;;;2.53;;
38130;SDS011;23947;51.894;4.622;2023-04-02T10:08:51;17.60;;;6.97;;
38130;SDS011;23947;51.894;4.622;2023-04-02T10:11:18;7.45;;;2.13;;
38130;SDS011;23947;51.894;4.622;2023-04-02T10:13:55;6.70;;;2.78;;
38130;SDS011;23947;51.894;4.622;2023-04-02T10:16:26;11.32;;;3.30;;
38130;SDS011;23947;51.894;4.622;2023-04-02T10:21:52;6.22;;;2.30;;
38130;SDS011;23947;51.894;4.622;2023-04-02T10:24:19;9.75;;;2.28;;
38130;SDS011;23947;51.894;4.622;2023-04-02T10:26:51;8.48;;;2.72;;
38130;SDS011;23947;51.894;4.622;2023-04-02T10:43:33;8.02;;;3.70;;
38130;SDS011;23947;51.894;4.622;2023-04-02T10:46:22;8.00;;;2.38;;
38130;SDS011;23947;51.894;4.622;2023-04-02T10:51:40;6.45;;;2.42;;
38130;SDS011;23947;51.894;4.622;2023-04-02T10:59:46;9.37;;;3.57;;
38130;SDS011;23947;51.894;4.622;2023-04-02T11:02:30;8.57;;;3.53;;
38130;SDS011;23947;51.894;4.622;2023-04-02T11:05:01;6.88;;;2.17;;
38130;SDS011;23947;51.894;4.622;2023-04-02T11:07:41;7.03;;;2.55;;
38130;SDS011;23947;51.894;4.622;2023-04-02T11:10:14;4.97;;;1.70;;
38130;SDS011;23947;51.894;4.622;2023-04-02T11:12:45;9.82;;;3.40;;
38130;SDS011;23947;51.894;4.622;2023-04-02T11:15:18;7.50;;;2.85;;
38130;SDS011;23947;51.894;4.622;2023-04-02T11:17:45;6.90;;;1.58;;
38130;SDS011;23947;51.894;4.622;2023-04-02T11:23:10;8.93;;;2.75;;
38130;SDS011;23947;51.894;4.622;2023-04-02T11:25:37;9.75;;;1.90;;
38130;SDS011;23947;51.894;4.622;2023-04-02T11:30:55;6.82;;;1.17;;
38130;SDS011;23947;51.894;4.622;2023-04-02T11:33:36;8.60;;;1.10;;
38130;SDS011;23947;51.894;4.622;2023-04-02T11:39:43;7.63;;;1.30;;
38130;SDS011;23947;51.894;4.622;2023-04-02T11:42:30;8.68;;;1.10;;
38130;SDS011;23947;51.894;4.622;2023-04-02T11:44:57;6.95;;;1.00;;
38130;SDS011;23947;51.894;4.622;2023-04-02T11:47:25;7.97;;;1.13;;
38130;SDS011;23947;51.894;4.622;2023-04-02T11:52:23;8.00;;;2.03;;
38130;SDS011;23947;51.894;4.622;2023-04-02T11:54:56;14.65;;;1.60;;
38130;SDS011;23947;51.894;4.622;2023-04-02T11:57:27;7.75;;;1.05;;
38130;SDS011;23947;51.894;4.622;2023-04-02T12:11:30;8.75;;;1.27;;
38130;SDS011;23947;51.894;4.622;2023-04-02T12:13:58;7.15;;;0.80;;
38130;SDS011;23947;51.894;4.622;2023-04-02T12:16:24;6.40;;;0.85;;
38130;SDS011;23947;51.894;4.622;2023-04-02T12:18:55;8.70;;;2.85;;
38130;SDS011;23947;51.894;4.622;2023-04-02T12:21:23;10.68;;;1.90;;
38130;SDS011;23947;51.894;4.622;2023-04-02T12:23:50;11.55;;;3.78;;
38130;SDS011;23947;51.894;4.622;2023-04-02T12:26:26;15.55;;;5.55;;
38130;SDS011;23947;51.894;4.622;2023-04-02T12:31:44;17.48;;;8.60;;
38130;SDS011;23947;51.894;4.622;2023-04-02T12:34:15;6.32;;;1.17;;
38130;SDS011;23947;51.894;4.622;2023-04-02T12:36:58;9.07;;;1.13;;
38130;SDS011;23947;51.894;4.622;2023-04-02T12:39:30;7.40;;;1.25;;
38130;SDS011;23947;51.894;4.622;2023-04-02T12:41:57;7.10;;;0.88;;
38130;SDS011;23947;51.894;4.622;2023-04-02T12:44:24;3.90;;;0.65;;
38130;SDS011;23947;51.894;4.622;2023-04-02T12:46:54;4.75;;;0.77;;
38130;SDS011;23947;51.894;4.622;2023-04-02T12:49:27;4.25;;;0.80;;
38130;SDS011;23947;51.894;4.622;2023-04-02T12:52:01;7.38;;;1.45;;
38130;SDS011;23947;51.894;4.622;2023-04-02T12:54:34;4.95;;;0.85;;
38130;SDS011;23947;51.894;4.622;2023-04-02T12:59:46;4.35;;;0.70;;
38130;SDS011;23947;51.894;4.622;2023-04-02T13:02:17;9.68;;;3.20;;
38130;SDS011;23947;51.894;4.622;2023-04-02T13:04:55;6.53;;;1.52;;
38130;SDS011;23947;51.894;4.622;2023-04-02T13:07:25;7.97;;;1.17;;
38130;SDS011;23947;51.894;4.622;2023-04-02T13:09:54;3.65;;;0.80;;
38130;SDS011;23947;51.894;4.622;2023-04-02T13:12:37;5.22;;;1.20;;
38130;SDS011;23947;51.894;4.622;2023-04-02T13:20:30;6.70;;;1.35;;
38130;SDS011;23947;51.894;4.622;2023-04-02T13:22:57;4.72;;;1.00;;
38130;SDS011;23947;51.894;4.622;2023-04-02T13:25:27;6.10;;;0.90;;
38130;SDS011;23947;51.894;4.622;2023-04-02T13:27:55;5.28;;;1.08;;
38130;SDS011;23947;51.894;4.622;2023-04-02T13:30:22;4.85;;;0.70;;
38130;SDS011;23947;51.894;4.622;2023-04-02T13:32:49;6.50;;;1.13;;
38130;SDS011;23947;51.894;4.622;2023-04-02T13:35:15;5.13;;;0.60;;
38130;SDS011;23947;51.894;4.622;2023-04-02T13:37:41;4.97;;;0.70;;
38130;SDS011;23947;51.894;4.622;2023-04-02T13:40:11;3.72;;;0.50;;
38130;SDS011;23947;51.894;4.622;2023-04-02T13:42:38;4.00;;;0.80;;
38130;SDS011;23947;51.894;4.622;2023-04-02T13:45:08;5.63;;;0.75;;
38130;SDS011;23947;51.894;4.622;2023-04-02T13:47:45;6.15;;;0.65;;
38130;SDS011;23947;51.894;4.622;2023-04-02T13:50:14;4.47;;;0.65;;
38130;SDS011;23947;51.894;4.622;2023-04-02T13:52:45;4.97;;;1.17;;
38130;SDS011;23947;51.894;4.622;2023-04-02T13:55:12;7.38;;;1.10;;
38130;SDS011;23947;51.894;4.622;2023-04-02T13:57:39;8.32;;;1.70;;
38130;SDS011;23947;51.894;4.622;2023-04-02T14:00:05;5.05;;;0.80;;
38130;SDS011;23947;51.894;4.622;2023-04-02T14:02:31;12.27;;;2.50;;
38130;SDS011;23947;51.894;4.622;2023-04-02T14:05:47;6.30;;;1.02;;
38130;SDS011;23947;51.894;4.622;2023-04-02T14:12:58;5.40;;;0.95;;
38130;SDS011;23947;51.894;4.622;2023-04-02T14:26:09;4.40;;;0.57;;
38130;SDS011;23947;51.894;4.622;2023-04-02T14:29:06;4.50;;;1.00;;
38130;SDS011;23947;51.894;4.622;2023-04-02T14:31:42;5.68;;;2.03;;
38130;SDS011;23947;51.894;4.622;2023-04-02T14:42:16;5.35;;;0.80;;
38130;SDS011;23947;51.894;4.622;2023-04-02T14:44:50;9.15;;;3.22;;
38130;SDS011;23947;51.894;4.622;2023-04-02T14:47:26;3.70;;;0.90;;
38130;SDS011;23947;51.894;4.622;2023-04-02T14:50:15;4.60;;;0.95;;
38130;SDS011;23947;51.894;4.622;2023-04-02T14:52:46;7.35;;;1.45;;
38130;SDS011;23947;51.894;4.622;2023-04-02T14:57:55;8.52;;;1.30;;
38130;SDS011;23947;51.894;4.622;2023-04-02T15:03:17;5.57;;;0.73;;
38130;SDS011;23947;51.894;4.622;2023-04-02T15:05:49;11.35;;;1.85;;
38130;SDS011;23947;51.894;4.622;2023-04-02T15:10:53;5.32;;;1.10;;
38130;SDS011;23947;51.894;4.622;2023-04-02T15:13:33;8.23;;;0.98;;
38130;SDS011;23947;51.894;4.622;2023-04-02T15:16:04;4.38;;;0.70;;
38130;SDS011;23947;51.894;4.622;2023-04-02T15:18:37;4.55;;;0.82;;
38130;SDS011;23947;51.894;4.622;2023-04-02T15:32:24;8.00;;;1.52;;
38130;SDS011;23947;51.894;4.622;2023-04-02T15:43:05;6.03;;;1.25;;
38130;SDS011;23947;51.894;4.622;2023-04-02T15:54:18;7.30;;;1.73;;
38130;SDS011;23947;51.894;4.622;2023-04-02T16:05:26;4.78;;;0.95;;
38130;SDS011;23947;51.894;4.622;2023-04-02T16:10:46;5.72;;;0.75;;
38130;SDS011;23947;51.894;4.622;2023-04-02T16:16:03;6.40;;;1.48;;
38130;SDS011;23947;51.894;4.622;2023-04-02T16:21:33;5.55;;;0.85;;
38130;SDS011;23947;51.894;4.622;2023-04-02T16:24:10;19.63;;;5.90;;
38130;SDS011;23947;51.894;4.622;2023-04-02T16:26:46;5.13;;;0.60;;
38130;SDS011;23947;51.894;4.622;2023-04-02T16:34:56;7.32;;;2.13;;
38130;SDS011;23947;51.894;4.622;2023-04-02T16:37:55;11.00;;;3.45;;
38130;SDS011;23947;51.894;4.622;2023-04-02T16:43:23;8.18;;;0.70;;
38130;SDS011;23947;51.894;4.622;2023-04-02T16:48:58;4.63;;;0.80;;
38130;SDS011;23947;51.894;4.622;2023-04-02T16:51:46;6.57;;;1.35;;
38130;SDS011;23947;51.894;4.622;2023-04-02T16:59:54;8.07;;;0.70;;
38130;SDS011;23947;51.894;4.622;2023-04-02T17:02:26;5.13;;;0.75;;
38130;SDS011;23947;51.894;4.622;2023-04-02T17:12:46;3.05;;;0.60;;
38130;SDS011;23947;51.894;4.622;2023-04-02T17:15:22;16.05;;;4.28;;
38130;SDS011;23947;51.894;4.622;2023-04-02T17:17:51;6.53;;;1.15;;
38130;SDS011;23947;51.894;4.622;2023-04-02T17:20:22;4.95;;;1.00;;
38130;SDS011;23947;51.894;4.622;2023-04-02T17:22:50;20.80;;;7.68;;
38130;SDS011;23947;51.894;4.622;2023-04-02T17:25:18;6.70;;;1.30;;
38130;SDS011;23947;51.894;4.622;2023-04-02T17:27:49;7.28;;;1.38;;
38130;SDS011;23947;51.894;4.622;2023-04-02T17:33:14;5.95;;;0.60;;
38130;SDS011;23947;51.894;4.622;2023-04-02T17:41:19;7.18;;;1.30;;
38130;SDS011;23947;51.894;4.622;2023-04-02T17:47:00;4.97;;;0.75;;
38130;SDS011;23947;51.894;4.622;2023-04-02T17:55:17;6.35;;;0.77;;
38130;SDS011;23947;51.894;4.622;2023-04-02T18:00:56;5.80;;;0.95;;
38130;SDS011;23947;51.894;4.622;2023-04-02T18:06:36;6.15;;;0.90;;
38130;SDS011;23947;51.894;4.622;2023-04-02T18:20:38;4.57;;;0.75;;
38130;SDS011;23947;51.894;4.622;2023-04-02T18:37:35;6.45;;;1.00;;
38130;SDS011;23947;51.894;4.622;2023-04-02T18:42:48;9.88;;;2.58;;
38130;SDS011;23947;51.894;4.622;2023-04-02T18:51:43;5.95;;;1.10;;
38130;SDS011;23947;51.894;4.622;2023-04-02T18:54:19;5.38;;;0.75;;
38130;SDS011;23947;51.894;4.622;2023-04-02T18:56:49;9.65;;;2.35;;
38130;SDS011;23947;51.894;4.622;2023-04-02T19:01:52;5.00;;;0.70;;
38130;SDS011;23947;51.894;4.622;2023-04-02T19:04:21;7.18;;;0.85;;
38130;SDS011;23947;51.894;4.622;2023-04-02T19:07:11;5.78;;;0.55;;
38130;SDS011;23947;51.894;4.622;2023-04-02T19:09:41;81.38;;;33.55;;
38130;SDS011;23947;51.894;4.622;2023-04-02T19:12:15;4.13;;;1.10;;
38130;SDS011;23947;51.894;4.622;2023-04-02T19:14:43;5.05;;;0.82;;
38130;SDS011;23947;51.894;4.622;2023-04-02T19:17:22;3.20;;;0.80;;
38130;SDS011;23947;51.894;4.622;2023-04-02T19:22:41;11.13;;;1.52;;
38130;SDS011;23947;51.894;4.622;2023-04-02T19:36:09;7.93;;;0.57;;
38130;SDS011;23947;51.894;4.622;2023-04-02T19:41:47;4.57;;;0.90;;
38130;SDS011;23947;51.894;4.622;2023-04-02T19:44:36;3.97;;;0.77;;
38130;SDS011;23947;51.894;4.622;2023-04-02T19:47:08;3.92;;;0.68;;
38130;SDS011;23947;51.894;4.622;2023-04-02T19:49:35;5.82;;;1.05;;
38130;SDS011;23947;51.894;4.622;2023-04-02T19:52:00;5.72;;;0.90;;
38130;SDS011;23947;51.894;4.622;2023-04-02T19:54:26;8.27;;;1.00;;
38130;SDS011;23947;51.894;4.622;2023-04-02T19:56:52;3.90;;;0.80;;
38130;SDS011;23947;51.894;4.622;2023-04-02T19:59:17;6.15;;;1.30;;
38130;SDS011;23947;51.894;4.622;2023-04-02T20:01:43;5.15;;;0.70;;
38130;SDS011;23947;51.894;4.622;2023-04-02T20:04:09;6.38;;;0.90;;
38130;SDS011;23947;51.894;4.622;2023-04-02T20:06:35;7.00;;;0.80;;
38130;SDS011;23947;51.894;4.622;2023-04-02T20:09:01;9.70;;;1.13;;
38130;SDS011;23947;51.894;4.622;2023-04-02T20:11:27;5.25;;;1.05;;
38130;SDS011;23947;51.894;4.622;2023-04-02T20:13:53;3.63;;;0.70;;
38130;SDS011;23947;51.894;4.622;2023-04-02T20:16:19;5.30;;;1.20;;
38130;SDS011;23947;51.894;4.622;2023-04-02T20:18:45;4.43;;;0.70;;
38130;SDS011;23947;51.894;4.622;2023-04-02T20:21:12;5.38;;;0.82;;
38130;SDS011;23947;51.894;4.622;2023-04-02T20:23:38;5.32;;;0.80;;
38130;SDS011;23947;51.894;4.622;2023-04-02T20:26:03;6.35;;;1.35;;
38130;SDS011;23947;51.894;4.622;2023-04-02T20:28:30;3.97;;;0.90;;
38130;SDS011;23947;51.894;4.622;2023-04-02T20:33:35;8.63;;;0.95;;
38130;SDS011;23947;51.894;4.622;2023-04-02T20:36:03;6.03;;;1.20;;
38130;SDS011;23947;51.894;4.622;2023-04-02T20:38:30;7.90;;;1.25;;
38130;SDS011;23947;51.894;4.622;2023-04-02T20:40:57;7.75;;;2.00;;
38130;SDS011;23947;51.894;4.622;2023-04-02T20:43:22;12.30;;;3.38;;
38130;SDS011;23947;51.894;4.622;2023-04-02T20:45:55;7.18;;;1.13;;
38130;SDS011;23947;51.894;4.622;2023-04-02T20:48:23;6.78;;;0.90;;
38130;SDS011;23947;51.894;4.622;2023-04-02T20:50:51;7.60;;;1.10;;
38130;SDS011;23947;51.894;4.622;2023-04-02T20:53:17;5.90;;;0.90;;
38130;SDS011;23947;51.894;4.622;2023-04-02T20:55:42;6.97;;;0.80;;
38130;SDS011;23947;51.894;4.622;2023-04-02T20:58:10;4.72;;;1.10;;
38130;SDS011;23947;51.894;4.622;2023-04-02T21:00:37;6.10;;;0.95;;
38130;SDS011;23947;51.894;4.622;2023-04-02T21:03:03;6.88;;;1.20;;
38130;SDS011;23947;51.894;4.622;2023-04-02T21:05:29;10.25;;;1.25;;
38130;SDS011;23947;51.894;4.622;2023-04-02T21:07:54;3.83;;;0.70;;